sensor_id;sensor_type;location;lat;lon;timestamp;pressure;altitude;pressure_sealevel;temperature;humidity
46408;BME280;32110;45.724;21.276;2023-08-17T00:01:24;100658.63;;;19.29;nan
46408;BME280;32110;45.724;21.276;2023-08-17T00:03:49;100665.84;;;19.28;nan
46408;BME280;32110;45.724;21.276;2023-08-17T00:06:15;100672.25;;;19.27;nan
46408;BME280;32110;45.724;21.276;2023-08-17T00:08:42;100689.88;;;19.28;nan
46408;BME280;32110;45.724;21.276;2023-08-17T00:11:08;100687.44;;;19.32;nan
46408;BME280;32110;45.724;21.276;2023-08-17T00:13:34;100670.09;;;19.29;nan
46408;BME280;32110;45.724;21.276;2023-08-17T00:15:59;100672.44;;;19.41;nan
46408;BME280;32110;45.724;21.276;2023-08-17T00:18:25;100665.22;;;19.42;nan
46408;BME280;32110;45.724;21.276;2023-08-17T00:20:50;100648.97;;;19.38;nan
46408;BME280;32110;45.724;21.276;2023-08-17T00:23:15;100650.28;;;19.41;nan
46408;BME280;32110;45.724;21.276;2023-08-17T00:25:41;100652.16;;;19.40;nan
46408;BME280;32110;45.724;21.276;2023-08-17T00:28:06;100662.00;;;19.45;nan
46408;BME280;32110;45.724;21.276;2023-08-17T00:30:32;100661.22;;;19.44;nan
46408;BME280;32110;45.724;21.276;2023-08-17T00:33:01;100666.81;;;19.43;nan
46408;BME280;32110;45.724;21.276;2023-08-17T00:35:26;100659.09;;;19.41;nan
46408;BME280;32110;45.724;21.276;2023-08-17T00:37:51;100652.44;;;19.39;nan
46408;BME280;32110;45.724;21.276;2023-08-17T00:40:17;100648.16;;;19.38;nan
46408;BME280;32110;45.724;21.276;2023-08-17T00:42:42;100646.28;;;19.38;nan
46408;BME280;32110;45.724;21.276;2023-08-17T00:45:08;100642.03;;;19.37;nan
46408;BME280;32110;45.724;21.276;2023-08-17T00:47:33;100620.38;;;19.39;nan
46408;BME280;32110;45.724;21.276;2023-08-17T00:49:59;100619.84;;;19.37;nan
46408;BME280;32110;45.724;21.276;2023-08-17T00:52:25;100622.03;;;19.29;nan
46408;BME280;32110;45.724;21.276;2023-08-17T00:54:51;100627.34;;;19.34;nan
46408;BME280;32110;45.724;21.276;2023-08-17T00:57:17;100636.16;;;19.35;nan
46408;BME280;32110;45.724;21.276;2023-08-17T00:59:42;100629.25;;;19.29;nan
46408;BME280;32110;45.724;21.276;2023-08-17T01:02:08;100614.63;;;19.21;nan
46408;BME280;32110;45.724;21.276;2023-08-17T01:04:33;100632.50;;;19.26;nan
46408;BME280;32110;45.724;21.276;2023-08-17T01:06:59;100625.84;;;19.23;nan
46408;BME280;32110;45.724;21.276;2023-08-17T01:09:24;100624.53;;;19.21;nan
46408;BME280;32110;45.724;21.276;2023-08-17T01:11:57;100619.22;;;19.16;nan
46408;BME280;32110;45.724;21.276;2023-08-17T01:19:27;100634.16;;;19.17;nan
46408;BME280;32110;45.724;21.276;2023-08-17T01:22:14;100623.25;;;19.13;nan
46408;BME280;32110;45.724;21.276;2023-08-17T01:24:41;100609.66;;;19.04;nan
46408;BME280;32110;45.724;21.276;2023-08-17T01:27:06;100612.31;;;19.09;nan
46408;BME280;32110;45.724;21.276;2023-08-17T01:29:32;100621.09;;;19.10;nan
46408;BME280;32110;45.724;21.276;2023-08-17T01:34:33;100596.06;;;19.01;nan
46408;BME280;32110;45.724;21.276;2023-08-17T01:37:03;100616.31;;;19.07;nan
46408;BME280;32110;45.724;21.276;2023-08-17T01:39:37;100620.31;;;19.09;nan
46408;BME280;32110;45.724;21.276;2023-08-17T01:42:03;100616.81;;;19.14;nan
46408;BME280;32110;45.724;21.276;2023-08-17T01:44:30;100612.56;;;19.13;nan
46408;BME280;32110;45.724;21.276;2023-08-17T01:46:55;100614.09;;;19.19;nan
46408;BME280;32110;45.724;21.276;2023-08-17T01:49:21;100612.19;;;19.30;nan
46408;BME280;32110;45.724;21.276;2023-08-17T01:51:46;100618.00;;;19.32;nan
46408;BME280;32110;45.724;21.276;2023-08-17T01:54:12;100605.75;;;19.31;nan
46408;BME280;32110;45.724;21.276;2023-08-17T01:56:37;100605.97;;;19.34;nan
46408;BME280;32110;45.724;21.276;2023-08-17T01:59:02;100565.53;;;19.17;nan
46408;BME280;32110;45.724;21.276;2023-08-17T02:01:28;100606.50;;;19.37;nan
46408;BME280;32110;45.724;21.276;2023-08-17T02:03:53;100564.75;;;19.17;nan
46408;BME280;32110;45.724;21.276;2023-08-17T02:06:19;100580.16;;;19.25;nan
46408;BME280;32110;45.724;21.276;2023-08-17T02:08:45;100597.97;;;19.40;nan
46408;BME280;32110;45.724;21.276;2023-08-17T02:11:10;100592.09;;;19.38;nan
46408;BME280;32110;45.724;21.276;2023-08-17T02:13:36;100608.94;;;19.33;nan
46408;BME280;32110;45.724;21.276;2023-08-17T02:16:03;100596.44;;;19.28;nan
46408;BME280;32110;45.724;21.276;2023-08-17T02:18:29;100605.50;;;19.27;nan
46408;BME280;32110;45.724;21.276;2023-08-17T02:20:57;100615.69;;;19.25;nan
46408;BME280;32110;45.724;21.276;2023-08-17T02:23:22;100617.03;;;19.23;nan
46408;BME280;32110;45.724;21.276;2023-08-17T02:25:48;100616.25;;;19.17;nan
46408;BME280;32110;45.724;21.276;2023-08-17T02:28:13;100609.88;;;19.13;nan
46408;BME280;32110;45.724;21.276;2023-08-17T02:30:38;100612.56;;;19.13;nan
46408;BME280;32110;45.724;21.276;2023-08-17T02:33:04;100617.59;;;19.15;nan
46408;BME280;32110;45.724;21.276;2023-08-17T02:35:30;100631.25;;;19.13;nan
46408;BME280;32110;45.724;21.276;2023-08-17T02:37:55;100613.38;;;19.08;nan
46408;BME280;32110;45.724;21.276;2023-08-17T02:40:20;100619.00;;;19.07;nan
46408;BME280;32110;45.724;21.276;2023-08-17T02:42:46;100612.38;;;18.99;nan
46408;BME280;32110;45.724;21.276;2023-08-17T02:45:11;100591.88;;;18.89;nan
46408;BME280;32110;45.724;21.276;2023-08-17T02:47:37;100603.53;;;19.04;nan
46408;BME280;32110;45.724;21.276;2023-08-17T02:50:03;100609.91;;;19.08;nan
46408;BME280;32110;45.724;21.276;2023-08-17T02:52:28;100606.72;;;19.06;nan
46408;BME280;32110;45.724;21.276;2023-08-17T02:54:54;100614.16;;;19.14;nan
46408;BME280;32110;45.724;21.276;2023-08-17T02:57:20;100616.53;;;19.16;nan
46408;BME280;32110;45.724;21.276;2023-08-17T02:59:46;100607.22;;;19.13;nan
46408;BME280;32110;45.724;21.276;2023-08-17T03:02:11;100610.38;;;19.20;nan
46408;BME280;32110;45.724;21.276;2023-08-17T03:04:36;100600.53;;;19.16;nan
46408;BME280;32110;45.724;21.276;2023-08-17T03:07:02;100609.25;;;19.26;nan
46408;BME280;32110;45.724;21.276;2023-08-17T03:09:27;100609.78;;;19.28;nan
46408;BME280;32110;45.724;21.276;2023-08-17T03:11:53;100592.72;;;19.24;nan
46408;BME280;32110;45.724;21.276;2023-08-17T03:14:18;100599.88;;;19.29;nan
46408;BME280;32110;45.724;21.276;2023-08-17T03:16:44;100604.16;;;19.30;nan
46408;BME280;32110;45.724;21.276;2023-08-17T03:19:09;100601.50;;;19.30;nan
46408;BME280;32110;45.724;21.276;2023-08-17T03:21:36;100611.34;;;19.29;nan
46408;BME280;32110;45.724;21.276;2023-08-17T03:24:02;100596.16;;;19.25;nan
46408;BME280;32110;45.724;21.276;2023-08-17T03:26:28;100610.59;;;19.24;nan
46408;BME280;32110;45.724;21.276;2023-08-17T03:28:53;100611.69;;;19.18;nan
46408;BME280;32110;45.724;21.276;2023-08-17T03:31:20;100623.16;;;19.23;nan
46408;BME280;32110;45.724;21.276;2023-08-17T03:33:46;100625.88;;;19.18;nan
46408;BME280;32110;45.724;21.276;2023-08-17T03:36:11;100626.09;;;19.22;nan
46408;BME280;32110;45.724;21.276;2023-08-17T03:38:37;100623.72;;;19.20;nan
46408;BME280;32110;45.724;21.276;2023-08-17T03:41:04;100627.19;;;19.21;nan
46408;BME280;32110;45.724;21.276;2023-08-17T03:43:30;100624.53;;;19.21;nan
46408;BME280;32110;45.724;21.276;2023-08-17T03:45:55;100625.88;;;19.18;nan
46408;BME280;32110;45.724;21.276;2023-08-17T03:48:20;100614.19;;;19.09;nan
46408;BME280;32110;45.724;21.276;2023-08-17T03:50:51;100625.06;;;19.18;nan
46408;BME280;32110;45.724;21.276;2023-08-17T03:53:16;100618.34;;;19.25;nan
46408;BME280;32110;45.724;21.276;2023-08-17T03:55:50;100625.81;;;19.28;nan
46408;BME280;32110;45.724;21.276;2023-08-17T03:58:17;100627.94;;;19.26;nan
46408;BME280;32110;45.724;21.276;2023-08-17T04:00:51;100625.28;;;19.26;nan
46408;BME280;32110;45.724;21.276;2023-08-17T04:03:47;100630.09;;;19.24;nan
46408;BME280;32110;45.724;21.276;2023-08-17T04:06:12;100622.63;;;19.21;nan
46408;BME280;32110;45.724;21.276;2023-08-17T04:08:38;100631.13;;;19.28;nan
46408;BME280;32110;45.724;21.276;2023-08-17T04:11:04;100629.53;;;19.27;nan
46408;BME280;32110;45.724;21.276;2023-08-17T04:13:30;100626.34;;;19.25;nan
46408;BME280;32110;45.724;21.276;2023-08-17T04:15:55;100631.41;;;19.27;nan
46408;BME280;32110;45.724;21.276;2023-08-17T04:18:21;100634.88;;;19.27;nan
46408;BME280;32110;45.724;21.276;2023-08-17T04:20:46;100629.81;;;19.26;nan
46408;BME280;32110;45.724;21.276;2023-08-17T04:23:12;100641.50;;;19.35;nan
46408;BME280;32110;45.724;21.276;2023-08-17T04:25:37;100631.13;;;19.28;nan
46408;BME280;32110;45.724;21.276;2023-08-17T04:28:03;100640.69;;;19.34;nan
46408;BME280;32110;45.724;21.276;2023-08-17T04:30:28;100641.50;;;19.35;nan
46408;BME280;32110;45.724;21.276;2023-08-17T04:32:54;100626.06;;;19.27;nan
46408;BME280;32110;45.724;21.276;2023-08-17T04:35:20;100641.25;;;19.31;nan
46408;BME280;32110;45.724;21.276;2023-08-17T04:37:45;100657.53;;;19.35;nan
46408;BME280;32110;45.724;21.276;2023-08-17T04:40:12;100658.59;;;19.34;nan
46408;BME280;32110;45.724;21.276;2023-08-17T04:42:38;100652.50;;;19.28;nan
46408;BME280;32110;45.724;21.276;2023-08-17T04:45:03;100663.66;;;19.36;nan
46408;BME280;32110;45.724;21.276;2023-08-17T04:47:29;100659.66;;;19.38;nan
46408;BME280;32110;45.724;21.276;2023-08-17T04:49:54;100658.31;;;19.36;nan
46408;BME280;32110;45.724;21.276;2023-08-17T04:52:23;100666.06;;;19.37;nan
46408;BME280;32110;45.724;21.276;2023-08-17T04:54:48;100657.00;;;19.33;nan
46408;BME280;32110;45.724;21.276;2023-08-17T04:57:14;100662.09;;;19.29;nan
46408;BME280;32110;45.724;21.276;2023-08-17T04:59:40;100659.72;;;19.28;nan
46408;BME280;32110;45.724;21.276;2023-08-17T05:02:05;100653.56;;;19.27;nan
46408;BME280;32110;45.724;21.276;2023-08-17T05:04:31;100668.75;;;19.32;nan
46408;BME280;32110;45.724;21.276;2023-08-17T05:06:56;100659.41;;;19.29;nan
46408;BME280;32110;45.724;21.276;2023-08-17T05:09:21;100670.59;;;19.37;nan
46408;BME280;32110;45.724;21.276;2023-08-17T05:11:47;100643.25;;;19.16;nan
46408;BME280;32110;45.724;21.276;2023-08-17T05:14:12;100684.75;;;19.37;nan
46408;BME280;32110;45.724;21.276;2023-08-17T05:16:38;100655.50;;;19.17;nan
46408;BME280;32110;45.724;21.276;2023-08-17T05:19:04;100693.00;;;19.41;nan
46408;BME280;32110;45.724;21.276;2023-08-17T05:21:29;100686.88;;;19.40;nan
46408;BME280;32110;45.724;21.276;2023-08-17T05:23:55;100687.94;;;19.39;nan
46408;BME280;32110;45.724;21.276;2023-08-17T05:26:20;100686.63;;;19.37;nan
46408;BME280;32110;45.724;21.276;2023-08-17T05:28:46;100702.88;;;19.45;nan
46408;BME280;32110;45.724;21.276;2023-08-17T05:31:11;100704.75;;;19.45;nan
46408;BME280;32110;45.724;21.276;2023-08-17T05:33:37;100716.97;;;19.51;nan
46408;BME280;32110;45.724;21.276;2023-08-17T05:36:02;100706.84;;;19.48;nan
46408;BME280;32110;45.724;21.276;2023-08-17T05:38:28;100715.34;;;19.55;nan
46408;BME280;32110;45.724;21.276;2023-08-17T05:40:57;100720.09;;;19.63;nan
46408;BME280;32110;45.724;21.276;2023-08-17T05:43:23;100717.69;;;19.67;nan
46408;BME280;32110;45.724;21.276;2023-08-17T05:45:48;100702.50;;;19.62;nan
46408;BME280;32110;45.724;21.276;2023-08-17T05:48:14;100711.03;;;19.69;nan
46408;BME280;32110;45.724;21.276;2023-08-17T05:50:43;100705.69;;;19.64;nan
46408;BME280;32110;45.724;21.276;2023-08-17T05:53:08;100708.88;;;19.71;nan
46408;BME280;32110;45.724;21.276;2023-08-17T05:55:34;100719.25;;;19.78;nan
46408;BME280;32110;45.724;21.276;2023-08-17T05:58:00;100727.22;;;19.83;nan
46408;BME280;32110;45.724;21.276;2023-08-17T06:00:25;100725.34;;;19.84;nan
46408;BME280;32110;45.724;21.276;2023-08-17T06:02:51;100714.97;;;19.77;nan
46408;BME280;32110;45.724;21.276;2023-08-17T06:05:17;100718.91;;;19.85;nan
46408;BME280;32110;45.724;21.276;2023-08-17T06:07:43;100720.78;;;19.84;nan
46408;BME280;32110;45.724;21.276;2023-08-17T06:10:09;100728.22;;;19.92;nan
46408;BME280;32110;45.724;21.276;2023-08-17T06:12:35;100732.22;;;19.95;nan
46408;BME280;32110;45.724;21.276;2023-08-17T06:15:01;100741.56;;;19.97;nan
46408;BME280;32110;45.724;21.276;2023-08-17T06:17:27;100736.50;;;19.91;nan
46408;BME280;32110;45.724;21.276;2023-08-17T06:19:53;100735.63;;;20.01;nan
46408;BME280;32110;45.724;21.276;2023-08-17T06:22:18;100746.06;;;20.02;nan
46408;BME280;32110;45.724;21.276;2023-08-17T06:24:44;100737.53;;;20.00;nan
46408;BME280;32110;45.724;21.276;2023-08-17T06:27:09;100741.47;;;20.08;nan
46408;BME280;32110;45.724;21.276;2023-08-17T06:29:35;100732.91;;;20.06;nan
46408;BME280;32110;45.724;21.276;2023-08-17T06:32:00;100720.13;;;20.03;nan
46408;BME280;32110;45.724;21.276;2023-08-17T06:34:25;100743.53;;;20.16;nan
46408;BME280;32110;45.724;21.276;2023-08-17T06:36:58;100735.50;;;20.16;nan
46408;BME280;32110;45.724;21.276;2023-08-17T06:39:24;100736.84;;;20.18;nan
46408;BME280;32110;45.724;21.276;2023-08-17T06:41:49;100725.63;;;20.16;nan
46408;BME280;32110;45.724;21.276;2023-08-17T06:44:15;100738.16;;;20.21;nan
46408;BME280;32110;45.724;21.276;2023-08-17T06:46:40;100733.88;;;20.20;nan
46408;BME280;32110;45.724;21.276;2023-08-17T06:49:06;100737.25;;;20.31;nan
46408;BME280;32110;45.724;21.276;2023-08-17T06:51:31;100733.50;;;20.32;nan
46408;BME280;32110;45.724;21.276;2023-08-17T06:53:56;100755.56;;;20.48;nan
46408;BME280;32110;45.724;21.276;2023-08-17T06:56:22;100748.06;;;20.45;nan
46408;BME280;32110;45.724;21.276;2023-08-17T06:58:48;100749.06;;;20.54;nan
46408;BME280;32110;45.724;21.276;2023-08-17T07:01:13;100740.03;;;20.50;nan
46408;BME280;32110;45.724;21.276;2023-08-17T07:03:40;100743.13;;;20.62;nan
46408;BME280;32110;45.724;21.276;2023-08-17T07:06:05;100753.78;;;20.67;nan
46408;BME280;32110;45.724;21.276;2023-08-17T07:08:31;100745.97;;;20.71;nan
46408;BME280;32110;45.724;21.276;2023-08-17T07:10:58;100752.38;;;20.75;nan
46408;BME280;32110;45.724;21.276;2023-08-17T07:13:23;100748.56;;;20.81;nan
46408;BME280;32110;45.724;21.276;2023-08-17T07:15:48;100755.69;;;20.91;nan
46408;BME280;32110;45.724;21.276;2023-08-17T07:18:14;100756.91;;;20.98;nan
46408;BME280;32110;45.724;21.276;2023-08-17T07:20:39;100745.41;;;20.98;nan
46408;BME280;32110;45.724;21.276;2023-08-17T07:23:05;100741.88;;;21.02;nan
46408;BME280;32110;45.724;21.276;2023-08-17T07:25:30;100739.69;;;21.04;nan
46408;BME280;32110;45.724;21.276;2023-08-17T07:27:56;100749.72;;;21.18;nan
46408;BME280;32110;45.724;21.276;2023-08-17T07:30:21;100750.75;;;21.22;nan
46408;BME280;32110;45.724;21.276;2023-08-17T07:32:47;100751.03;;;21.20;nan
46408;BME280;32110;45.724;21.276;2023-08-17T07:35:12;100759.22;;;21.29;nan
46408;BME280;32110;45.724;21.276;2023-08-17T07:37:38;100763.41;;;21.35;nan
46408;BME280;32110;45.724;21.276;2023-08-17T07:40:03;100763.88;;;21.42;nan
46408;BME280;32110;45.724;21.276;2023-08-17T07:42:29;100774.19;;;21.54;nan
46408;BME280;32110;45.724;21.276;2023-08-17T07:44:54;100746.66;;;21.49;nan
46408;BME280;32110;45.724;21.276;2023-08-17T07:47:20;100748.25;;;21.50;nan
46408;BME280;32110;45.724;21.276;2023-08-17T07:49:45;100752.19;;;21.57;nan
46408;BME280;32110;45.724;21.276;2023-08-17T07:52:10;100758.25;;;21.63;nan
46408;BME280;32110;45.724;21.276;2023-08-17T07:54:36;100757.31;;;21.73;nan
46408;BME280;32110;45.724;21.276;2023-08-17T07:57:01;100754.63;;;21.73;nan
46408;BME280;32110;45.724;21.276;2023-08-17T07:59:28;100759.84;;;21.83;nan
46408;BME280;32110;45.724;21.276;2023-08-17T08:01:54;100748.91;;;21.79;nan
46408;BME280;32110;45.724;21.276;2023-08-17T08:04:19;100758.69;;;21.89;nan
46408;BME280;32110;45.724;21.276;2023-08-17T08:06:46;100761.47;;;21.98;nan
46408;BME280;32110;45.724;21.276;2023-08-17T08:09:11;100742.28;;;21.91;nan
46408;BME280;32110;45.724;21.276;2023-08-17T08:11:37;100730.06;;;21.84;nan
46408;BME280;32110;45.724;21.276;2023-08-17T08:14:02;100762.91;;;22.09;nan
46408;BME280;32110;45.724;21.276;2023-08-17T08:16:28;100754.59;;;22.11;nan
46408;BME280;32110;45.724;21.276;2023-08-17T08:18:56;100755.16;;;22.07;nan
46408;BME280;32110;45.724;21.276;2023-08-17T08:21:22;100755.09;;;22.13;nan
46408;BME280;32110;45.724;21.276;2023-08-17T08:23:48;100761.69;;;22.20;nan
46408;BME280;32110;45.724;21.276;2023-08-17T08:26:13;100763.78;;;22.23;nan
46408;BME280;32110;45.724;21.276;2023-08-17T08:28:39;100755.44;;;22.25;nan
46408;BME280;32110;45.724;21.276;2023-08-17T08:31:04;100763.91;;;22.32;nan
46408;BME280;32110;45.724;21.276;2023-08-17T08:33:30;100763.53;;;22.39;nan
46408;BME280;32110;45.724;21.276;2023-08-17T08:35:55;100761.66;;;22.39;nan
46408;BME280;32110;45.724;21.276;2023-08-17T08:38:21;100754.16;;;22.36;nan
46408;BME280;32110;45.724;21.276;2023-08-17T08:40:47;100747.72;;;22.37;nan
46408;BME280;32110;45.724;21.276;2023-08-17T08:43:13;100757.47;;;22.47;nan
46408;BME280;32110;45.724;21.276;2023-08-17T08:45:41;100753.50;;;22.44;nan
46408;BME280;32110;45.724;21.276;2023-08-17T08:48:18;100752.63;;;22.49;nan
46408;BME280;32110;45.724;21.276;2023-08-17T08:50:45;100747.44;;;22.52;nan
46408;BME280;32110;45.724;21.276;2023-08-17T08:53:17;100762.09;;;22.60;nan
46408;BME280;32110;45.724;21.276;2023-08-17T08:56:10;100756.63;;;22.65;nan
46408;BME280;32110;45.724;21.276;2023-08-17T08:58:38;100750.44;;;22.65;nan
46408;BME280;32110;45.724;21.276;2023-08-17T09:01:06;100745.06;;;22.65;nan
46408;BME280;32110;45.724;21.276;2023-08-17T09:03:33;100746.66;;;22.66;nan
46408;BME280;32110;45.724;21.276;2023-08-17T09:08:28;100758.22;;;22.80;nan
46408;BME280;32110;45.724;21.276;2023-08-17T09:10:54;100747.47;;;22.80;nan
46408;BME280;32110;45.724;21.276;2023-08-17T09:13:20;100744.97;;;22.84;nan
46408;BME280;32110;45.724;21.276;2023-08-17T09:15:45;100750.16;;;22.94;nan
46408;BME280;32110;45.724;21.276;2023-08-17T09:18:11;100754.56;;;23.04;nan
46408;BME280;32110;45.724;21.276;2023-08-17T09:20:41;100744.38;;;23.14;nan
46408;BME280;32110;45.724;21.276;2023-08-17T09:23:15;100748.44;;;23.26;nan
46408;BME280;32110;45.724;21.276;2023-08-17T09:25:43;100741.97;;;23.27;nan
46408;BME280;32110;45.724;21.276;2023-08-17T09:28:13;100730.63;;;23.30;nan
46408;BME280;32110;45.724;21.276;2023-08-17T09:33:18;100734.56;;;23.46;nan
46408;BME280;32110;45.724;21.276;2023-08-17T09:35:44;100741.72;;;23.51;nan
46408;BME280;32110;45.724;21.276;2023-08-17T09:38:09;100744.06;;;23.66;nan
46408;BME280;32110;45.724;21.276;2023-08-17T09:40:35;100739.97;;;23.69;nan
46408;BME280;32110;45.724;21.276;2023-08-17T09:43:02;100744.41;;;23.87;nan
46408;BME280;32110;45.724;21.276;2023-08-17T09:45:27;100732.41;;;23.93;nan
46408;BME280;32110;45.724;21.276;2023-08-17T09:47:54;100737.06;;;24.02;nan
46408;BME280;32110;45.724;21.276;2023-08-17T09:50:23;100743.78;;;24.13;nan
46408;BME280;32110;45.724;21.276;2023-08-17T09:52:52;100744.81;;;24.26;nan
46408;BME280;32110;45.724;21.276;2023-08-17T09:55:18;100724.84;;;24.27;nan
46408;BME280;32110;45.724;21.276;2023-08-17T09:57:45;100735.34;;;24.37;nan
46408;BME280;32110;45.724;21.276;2023-08-17T10:00:14;100732.06;;;24.40;nan
46408;BME280;32110;45.724;21.276;2023-08-17T10:02:39;100717.63;;;24.36;nan
46408;BME280;32110;45.724;21.276;2023-08-17T10:05:05;100734.16;;;24.52;nan
46408;BME280;32110;45.724;21.276;2023-08-17T10:07:33;100719.00;;;24.56;nan
46408;BME280;32110;45.724;21.276;2023-08-17T10:10:03;100718.84;;;24.61;nan
46408;BME280;32110;45.724;21.276;2023-08-17T10:12:45;100717.31;;;24.69;nan
46408;BME280;32110;45.724;21.276;2023-08-17T10:15:15;100729.84;;;24.82;nan
46408;BME280;32110;45.724;21.276;2023-08-17T10:17:51;100717.81;;;24.79;nan
46408;BME280;32110;45.724;21.276;2023-08-17T10:20:18;100728.94;;;24.95;nan
46408;BME280;32110;45.724;21.276;2023-08-17T10:22:55;100729.28;;;25.02;nan
46408;BME280;32110;45.724;21.276;2023-08-17T10:25:27;100729.28;;;25.11;nan
46408;BME280;32110;45.724;21.276;2023-08-17T10:27:53;100705.84;;;25.12;nan
46408;BME280;32110;45.724;21.276;2023-08-17T10:30:19;100715.06;;;25.28;nan
46408;BME280;32110;45.724;21.276;2023-08-17T10:32:45;100719.50;;;25.33;nan
46408;BME280;32110;45.724;21.276;2023-08-17T10:35:13;100709.19;;;25.35;nan
46408;BME280;32110;45.724;21.276;2023-08-17T10:37:39;100714.28;;;25.45;nan
46408;BME280;32110;45.724;21.276;2023-08-17T10:40:05;100721.59;;;25.53;nan
46408;BME280;32110;45.724;21.276;2023-08-17T10:42:35;100701.41;;;25.59;nan
46408;BME280;32110;45.724;21.276;2023-08-17T10:47:46;100710.28;;;25.77;nan
46408;BME280;32110;45.724;21.276;2023-08-17T10:50:24;100703.59;;;25.83;nan
46408;BME280;32110;45.724;21.276;2023-08-17T10:52:53;100699.03;;;25.84;nan
46408;BME280;32110;45.724;21.276;2023-08-17T10:55:39;100698.53;;;25.91;nan
46408;BME280;32110;45.724;21.276;2023-08-17T10:58:05;100688.22;;;25.93;nan
46408;BME280;32110;45.724;21.276;2023-08-17T11:00:40;100690.72;;;26.06;nan
46408;BME280;32110;45.724;21.276;2023-08-17T11:03:18;100681.19;;;26.18;nan
46408;BME280;32110;45.724;21.276;2023-08-17T11:11:01;100684.63;;;26.27;nan
46408;BME280;32110;45.724;21.276;2023-08-17T11:13:28;100688.72;;;26.33;nan
46408;BME280;32110;45.724;21.276;2023-08-17T11:15:54;100669.03;;;26.33;nan
46408;BME280;32110;45.724;21.276;2023-08-17T11:18:20;100670.47;;;26.39;nan
46408;BME280;32110;45.724;21.276;2023-08-17T11:20:46;100663.13;;;26.39;nan
46408;BME280;32110;45.724;21.276;2023-08-17T11:23:13;100677.06;;;26.50;nan
46408;BME280;32110;45.724;21.276;2023-08-17T11:25:39;100669.28;;;26.48;nan
46408;BME280;32110;45.724;21.276;2023-08-17T11:28:07;100649.91;;;26.46;nan
46408;BME280;32110;45.724;21.276;2023-08-17T11:30:36;100657.50;;;26.53;nan
46408;BME280;32110;45.724;21.276;2023-08-17T11:33:04;100668.63;;;26.60;nan
46408;BME280;32110;45.724;21.276;2023-08-17T11:35:30;100664.31;;;26.59;nan
46408;BME280;32110;45.724;21.276;2023-08-17T11:37:55;100651.81;;;26.55;nan
46408;BME280;32110;45.724;21.276;2023-08-17T11:40:21;100653.72;;;26.54;nan
46408;BME280;32110;45.724;21.276;2023-08-17T11:42:46;100669.06;;;26.62;nan
46408;BME280;32110;45.724;21.276;2023-08-17T11:45:13;100651.94;;;26.58;nan
46408;BME280;32110;45.724;21.276;2023-08-17T11:47:40;100664.59;;;26.66;nan
46408;BME280;32110;45.724;21.276;2023-08-17T11:50:07;100665.19;;;26.72;nan
46408;BME280;32110;45.724;21.276;2023-08-17T11:52:33;100654.25;;;26.68;nan
46408;BME280;32110;45.724;21.276;2023-08-17T11:54:59;100657.09;;;26.72;nan
46408;BME280;32110;45.724;21.276;2023-08-17T11:57:25;100646.81;;;26.65;nan
46408;BME280;32110;45.724;21.276;2023-08-17T11:59:58;100645.84;;;26.70;nan
46408;BME280;32110;45.724;21.276;2023-08-17T12:02:24;100644.41;;;26.72;nan
46408;BME280;32110;45.724;21.276;2023-08-17T12:04:50;100648.28;;;26.84;nan
46408;BME280;32110;45.724;21.276;2023-08-17T12:07:17;100640.97;;;26.84;nan
46408;BME280;32110;45.724;21.276;2023-08-17T12:09:43;100645.41;;;26.89;nan
46408;BME280;32110;45.724;21.276;2023-08-17T12:12:09;100644.72;;;26.92;nan
46408;BME280;32110;45.724;21.276;2023-08-17T12:14:35;100636.63;;;26.92;nan
46408;BME280;32110;45.724;21.276;2023-08-17T12:17:00;100641.69;;;26.93;nan
46408;BME280;32110;45.724;21.276;2023-08-17T12:19:26;100610.84;;;26.73;nan
46408;BME280;32110;45.724;21.276;2023-08-17T12:21:51;100637.22;;;26.98;nan
46408;BME280;32110;45.724;21.276;2023-08-17T12:24:17;100639.25;;;27.01;nan
46408;BME280;32110;45.724;21.276;2023-08-17T12:26:45;100632.28;;;27.00;nan
46408;BME280;32110;45.724;21.276;2023-08-17T12:29:11;100634.31;;;27.03;nan
46408;BME280;32110;45.724;21.276;2023-08-17T12:31:37;100616.38;;;26.98;nan
46408;BME280;32110;45.724;21.276;2023-08-17T12:34:03;100625.22;;;27.07;nan
46408;BME280;32110;45.724;21.276;2023-08-17T12:36:32;100618.69;;;27.08;nan
46408;BME280;32110;45.724;21.276;2023-08-17T12:38:57;100616.31;;;27.07;nan
46408;BME280;32110;45.724;21.276;2023-08-17T12:41:23;100611.78;;;26.99;nan
46408;BME280;32110;45.724;21.276;2023-08-17T12:43:49;100609.19;;;27.02;nan
46408;BME280;32110;45.724;21.276;2023-08-17T12:46:14;100612.81;;;27.06;nan
46408;BME280;32110;45.724;21.276;2023-08-17T12:48:43;100615.00;;;27.13;nan
46408;BME280;32110;45.724;21.276;2023-08-17T12:51:08;100604.84;;;27.10;nan
46408;BME280;32110;45.724;21.276;2023-08-17T12:53:33;100611.16;;;27.14;nan
46408;BME280;32110;45.724;21.276;2023-08-17T12:55:59;100611.00;;;27.19;nan
46408;BME280;32110;45.724;21.276;2023-08-17T12:58:24;100600.97;;;27.20;nan
46408;BME280;32110;45.724;21.276;2023-08-17T13:00:50;100605.38;;;27.24;nan
46408;BME280;32110;45.724;21.276;2023-08-17T13:03:18;100602.66;;;27.24;nan
46408;BME280;32110;45.724;21.276;2023-08-17T13:05:43;100598.50;;;27.27;nan
46408;BME280;32110;45.724;21.276;2023-08-17T13:08:09;100603.84;;;27.35;nan
46408;BME280;32110;45.724;21.276;2023-08-17T13:10:36;100601.47;;;27.34;nan
46408;BME280;32110;45.724;21.276;2023-08-17T13:13:01;100603.16;;;27.39;nan
46408;BME280;32110;45.724;21.276;2023-08-17T13:15:26;100600.91;;;27.41;nan
46408;BME280;32110;45.724;21.276;2023-08-17T13:17:52;100596.66;;;27.40;nan